WetterOnline ( https://www.wetteronline.de )

Wetter aktuell Ostercappeln

Aktuelles Wetter: Belm (103m)

6-stündlich | Neueste Meldungen
Ortszeit Temperatur Wetter
Mi, 07.12. 13:00 4.2° C bedeckt
Mi, 07.12. 7:00 2.5° C bewölkt
Mi, 07.12. 1:00 4.4° C bedeckt
Di, 06.12. 19:00 2.6° C bedeckt
Di, 06.12. 13:00 4.3° C Nebel
Di, 06.12. 7:00 1.5° C Nebel
Di, 06.12. 1:00 0.1° C Regen
Mo, 05.12. 19:00 0.2° C leichter Schneefall
Ortszeit Temperatur Wetter
Mi, 07.12. 18:30 2.4° C bedeckt
Mi, 07.12. 18:20 2.4° C bedeckt
Mi, 07.12. 18:10 2.5° C bedeckt
Mi, 07.12. 18:00 3.0° C leichter Regen
Mi, 07.12. 17:50 3.0° C leichter Regen
Mi, 07.12. 17:40 2.9° C leichter Regen
Mi, 07.12. 17:30 2.0° C wolkig
Mi, 07.12. 17:00 2.0° C wolkig
Mi, 07.12. 16:30 2.5° C wolkig
Mi, 07.12. 16:00 3.5° C leichter Regen
Mi, 07.12. 15:30 4.6° C bewölkt
Ortszeit Relative Feuchte Sichtweite
Mi, 07.12. 13:00 84% 45 km
Mi, 07.12. 7:00 92% 45 km
Mi, 07.12. 1:00 95% 9 km
Di, 06.12. 19:00 94% 23 km
Di, 06.12. 13:00 88% 55 km
Di, 06.12. 7:00 99% 0.4 km
Di, 06.12. 1:00 99% 2.3 km
Mo, 05.12. 19:00 98% 3.4 km
Ortszeit Relative Feuchte Sichtweite
Mi, 07.12. 18:30 93% 40 km
Mi, 07.12. 18:20 93% -
Mi, 07.12. 18:10 92% -
Mi, 07.12. 18:00 89% 27 km
Mi, 07.12. 17:50 89% -
Mi, 07.12. 17:40 90% -
Mi, 07.12. 17:30 94% 40 km
Mi, 07.12. 17:00 92% 50 km
Mi, 07.12. 16:30 90% >70 km
Mi, 07.12. 16:00 86% 9 km
Mi, 07.12. 15:30 79% 55 km
Ortszeit Niederschlagsmenge Niederschlagsart
Mi, 07.12. 13:00 0.1 l/m2 in 6 Std. Regen
Mi, 07.12. 7:00 0.1 l/m2 in 12 Std. Regen
Mi, 07.12. 1:00 0.1 l/m2 in 6 Std. Regen
Di, 06.12. 19:00 0.1 l/m2 in 12 Std. -
Di, 06.12. 13:00 0.1 l/m2 in 6 Std. Sprühregen
Di, 06.12. 7:00 2 l/m2 in 12 Std. Schnee, Regen
Di, 06.12. 1:00 2 l/m2 in 6 Std. Schnee, Sprühregen
Mo, 05.12. 19:00 5 l/m2 in 12 Std. Schnee, Regen
Ortszeit Niederschlagsmenge Niederschlagsart
Mi, 07.12. 18:30 <0.05 l/m2 in 1 Std. Schneeregen
Mi, 07.12. 18:20 keine Meldung -
Mi, 07.12. 18:10 keine Meldung -
Mi, 07.12. 18:00 <0.05 l/m2 in 1 Std. Regen
Mi, 07.12. 17:50 keine Meldung -
Mi, 07.12. 17:40 keine Meldung -
Mi, 07.12. 17:30 0.0 l/m2 in 1 Std. -
Mi, 07.12. 17:00 0.1 l/m2 in 1 Std. Regen
Mi, 07.12. 16:30 0.1 l/m2 in 1 Std. Schneeregen
Mi, 07.12. 16:00 0.2 l/m2 in 1 Std. Regen
Mi, 07.12. 15:30 0.0 l/m2 in 1 Std. -
Ortszeit Stärke Spitze Richtung
km/h Bft. km/h Grad Sektor
Mi, 07.12. 13:00 14 3 29 280° W
Mi, 07.12. 7:00 13 3 28 280° W
Mi, 07.12. 1:00 13 3 20 270° W
Di, 06.12. 19:00 6 1 20 180° S
Di, 06.12. 13:00 13 3 19 280° W
Di, 06.12. 7:00 0 0 4 - -
Di, 06.12. 1:00 2 1 4 290° W
Mo, 05.12. 19:00 0 0 4 - -
Ortszeit Stärke Spitze Richtung
km/h Bft. km/h Grad Sektor
Mi, 07.12. 18:30 9 2 22 260° W
Mi, 07.12. 18:20 9 2 - 260° W
Mi, 07.12. 18:10 11 2 - 280° W
Mi, 07.12. 18:00 18 3 29 280° W
Mi, 07.12. 17:50 18 3 - 280° W
Mi, 07.12. 17:40 14 3 - 260° W
Mi, 07.12. 17:30 7 2 11 260° W
Mi, 07.12. 17:00 7 2 25 250° W
Mi, 07.12. 16:30 9 2 26 280° W
Mi, 07.12. 16:00 18 3 32 260° W
Mi, 07.12. 15:30 14 3 29 270° W
Ortszeit Untergrenze Bedeckung Gattung
total tief tief mittel hoch
Mi, 07.12. 13:00 390 m 8/8 8/8 - - -
Mi, 07.12. 7:00 210 m 7/8 7/8 - - -
Mi, 07.12. 1:00 180 m 8/8 8/8 - - -
Di, 06.12. 19:00 450 m 8/8 8/8 - - -
Di, 06.12. 13:00 390 m 8/8 8/8 - - -
Di, 06.12. 7:00 <30 m 8/8 0/8 - - -
Di, 06.12. 1:00 30 m 8/8 8/8 - - -
Mo, 05.12. 19:00 60 m 8/8 8/8 - - -
Ortszeit Bedeckungsgrad in Achtel und Wolkenuntergrenze
Mi, 07.12. 18:30 1(60m) 8(2100m) 8(3000m)
Mi, 07.12. 18:20 1(60m) 8(2100m) 8(3000m)
Mi, 07.12. 18:10 8
Mi, 07.12. 18:00 3(60m) 8(1800m) 8(3300m)
Mi, 07.12. 17:50 3(60m) 8(1800m) 8(3300m)
Mi, 07.12. 17:40 8
Mi, 07.12. 17:30 1(570m) 8(3000m) 8(3600m)
Mi, 07.12. 17:00 1(510m) 8(3000m) 8(4800m)
Mi, 07.12. 16:30 1(540m) 7(3000m) 8(5100m)
Mi, 07.12. 16:00 3(450m) 8(1260m) 8(1800m)
Mi, 07.12. 15:30 4(690m) 8(3300m) 8(4200m)
Ortszeit Luftdruck NN (hPa) Tendenz (hPa in 3 Std.)
Mi, 07.12. 13:00 1014 - 0,6
Mi, 07.12. 7:00 1015 - 0,3
Mi, 07.12. 1:00 1016 - 0,6
Di, 06.12. 19:00 1017 - 0,8
Di, 06.12. 13:00 1018 - 0,6
Di, 06.12. 7:00 1018 - 0,7
Di, 06.12. 1:00 1019 - 0,5
Mo, 05.12. 19:00 1019 + 0,6
Ortszeit Luftdruck NN (hPa) Tendenz (hPa in 3 Std.)
Mi, 07.12. 18:30 1012 - 1,0
Mi, 07.12. 18:20 1012 keine Meldung
Mi, 07.12. 18:10 1012 keine Meldung
Mi, 07.12. 18:00 1013 - 0,5
Mi, 07.12. 17:50 1013 keine Meldung
Mi, 07.12. 17:40 1013 keine Meldung
Mi, 07.12. 17:30 1013 - 1,0
Mi, 07.12. 17:00 1013 - 0,8
Mi, 07.12. 16:30 1013 - 0,9
Mi, 07.12. 16:00 1013 - 1,1
Mi, 07.12. 15:30 1013 - 1,4
Ortszeit Schneehöhe (cm)
Mi, 07.12. 13:00 0
Mi, 07.12. 7:00 0
Mi, 07.12. 1:00 0
Di, 06.12. 19:00 0
Di, 06.12. 13:00 0
Di, 06.12. 7:00 0
Di, 06.12. 1:00 0
Mo, 05.12. 19:00 0
Ortszeit Schneehöhe (cm)
Mi, 07.12. 18:30 0
Mi, 07.12. 18:20 0
Mi, 07.12. 18:10 0
Mi, 07.12. 18:00 0
Mi, 07.12. 17:50 0
Mi, 07.12. 17:40 0
Mi, 07.12. 17:30 0
Mi, 07.12. 17:00 0
Mi, 07.12. 16:30 0
Mi, 07.12. 16:00 0
Mi, 07.12. 15:30 0
Link zu dieser Seite / Seite empfehlen

Das Wetter in ...